sensor_id;sensor_type;location;lat;lon;timestamp;pressure;altitude;pressure_sealevel;temperature;humidity
12471;BME280;36499;46.484;13.832;2023-05-23T00:01:07;93049.03;;;13.57;80.71
12471;BME280;36499;46.484;13.832;2023-05-23T00:03:35;93051.06;;;13.55;80.47
12471;BME280;36499;46.484;13.832;2023-05-23T00:06:06;93052.53;;;13.51;80.73
12471;BME280;36499;46.484;13.832;2023-05-23T00:08:33;93053.81;;;13.49;80.84
12471;BME280;36499;46.484;13.832;2023-05-23T00:11:00;93052.81;;;13.26;83.00
12471;BME280;36499;46.484;13.832;2023-05-23T00:13:27;93051.34;;;13.19;83.43
12471;BME280;36499;46.484;13.832;2023-05-23T00:15:54;93048.47;;;13.20;83.42
12471;BME280;36499;46.484;13.832;2023-05-23T00:18:22;93041.44;;;13.21;83.67
12471;BME280;36499;46.484;13.832;2023-05-23T00:20:49;93044.50;;;13.18;83.81
12471;BME280;36499;46.484;13.832;2023-05-23T00:23:18;93037.47;;;13.18;83.44
12471;BME280;36499;46.484;13.832;2023-05-23T00:25:46;93044.75;;;13.16;83.99
12471;BME280;36499;46.484;13.832;2023-05-23T00:28:17;93037.34;;;13.13;83.11
12471;BME280;36499;46.484;13.832;2023-05-23T00:30:45;93038.25;;;13.07;82.81
12471;BME280;36499;46.484;13.832;2023-05-23T00:33:13;93040.31;;;12.93;83.50
12471;BME280;36499;46.484;13.832;2023-05-23T00:35:41;93036.41;;;12.73;85.05
12471;BME280;36499;46.484;13.832;2023-05-23T00:38:08;93028.34;;;12.63;85.97
12471;BME280;36499;46.484;13.832;2023-05-23T00:40:37;93036.41;;;12.61;86.80
12471;BME280;36499;46.484;13.832;2023-05-23T00:43:04;93035.13;;;12.64;86.83
12471;BME280;36499;46.484;13.832;2023-05-23T00:45:33;93027.53;;;12.62;87.16
12471;BME280;36499;46.484;13.832;2023-05-23T00:48:01;93030.97;;;12.63;87.81
12471;BME280;36499;46.484;13.832;2023-05-23T00:50:29;93036.28;;;12.68;87.29
12471;BME280;36499;46.484;13.832;2023-05-23T00:53:00;93034.00;;;12.71;87.29
12471;BME280;36499;46.484;13.832;2023-05-23T00:55:28;93032.97;;;12.61;85.51
12471;BME280;36499;46.484;13.832;2023-05-23T00:57:58;93037.97;;;12.50;86.33
12471;BME280;36499;46.484;13.832;2023-05-23T01:00:26;93040.59;;;12.50;86.54
12471;BME280;36499;46.484;13.832;2023-05-23T01:02:54;93031.16;;;12.49;85.69
12471;BME280;36499;46.484;13.832;2023-05-23T01:05:22;93030.47;;;12.42;85.10
12471;BME280;36499;46.484;13.832;2023-05-23T01:07:50;93034.69;;;12.43;85.69
12471;BME280;36499;46.484;13.832;2023-05-23T01:10:22;93033.97;;;12.25;87.06
12471;BME280;36499;46.484;13.832;2023-05-23T01:13:06;93036.88;;;12.17;88.56
12471;BME280;36499;46.484;13.832;2023-05-23T01:15:45;93039.38;;;12.12;88.98
12471;BME280;36499;46.484;13.832;2023-05-23T01:18:23;93035.28;;;12.16;89.24
12471;BME280;36499;46.484;13.832;2023-05-23T01:20:55;93034.28;;;12.17;89.36
12471;BME280;36499;46.484;13.832;2023-05-23T01:23:53;93032.34;;;12.24;88.92
12471;BME280;36499;46.484;13.832;2023-05-23T01:26:59;93022.47;;;12.26;89.14
12471;BME280;36499;46.484;13.832;2023-05-23T01:29:33;93029.88;;;12.29;88.95
12471;BME280;36499;46.484;13.832;2023-05-23T01:32:06;93024.19;;;12.32;88.66
12471;BME280;36499;46.484;13.832;2023-05-23T01:34:37;93023.41;;;12.31;88.21
12471;BME280;36499;46.484;13.832;2023-05-23T01:37:08;93018.16;;;12.31;87.20
12471;BME280;36499;46.484;13.832;2023-05-23T01:39:36;93018.03;;;12.26;86.52
12471;BME280;36499;46.484;13.832;2023-05-23T01:42:04;93013.72;;;12.20;87.86
12471;BME280;36499;46.484;13.832;2023-05-23T01:44:34;93015.63;;;12.13;88.98
12471;BME280;36499;46.484;13.832;2023-05-23T01:47:02;93015.63;;;12.13;88.54
12471;BME280;36499;46.484;13.832;2023-05-23T01:49:32;93008.56;;;12.02;89.30
12471;BME280;36499;46.484;13.832;2023-05-23T01:52:00;93008.97;;;11.99;89.70
12471;BME280;36499;46.484;13.832;2023-05-23T01:54:28;93011.16;;;12.02;89.91
12471;BME280;36499;46.484;13.832;2023-05-23T01:56:58;93008.91;;;12.06;89.51
12471;BME280;36499;46.484;13.832;2023-05-23T01:59:26;93004.44;;;12.06;89.57
12471;BME280;36499;46.484;13.832;2023-05-23T02:01:54;93007.88;;;12.07;88.20
12471;BME280;36499;46.484;13.832;2023-05-23T02:04:22;93008.91;;;12.06;87.84
12471;BME280;36499;46.484;13.832;2023-05-23T02:06:49;93006.25;;;11.94;89.23
12471;BME280;36499;46.484;13.832;2023-05-23T02:09:16;93003.97;;;11.86;88.96
12471;BME280;36499;46.484;13.832;2023-05-23T02:11:43;93010.78;;;11.87;89.18
12471;BME280;36499;46.484;13.832;2023-05-23T02:14:10;93013.81;;;11.84;89.29
12471;BME280;36499;46.484;13.832;2023-05-23T02:16:38;93007.22;;;11.81;89.88
12471;BME280;36499;46.484;13.832;2023-05-23T02:19:06;93012.91;;;11.78;90.82
12471;BME280;36499;46.484;13.832;2023-05-23T02:21:33;93009.97;;;11.86;89.36
12471;BME280;36499;46.484;13.832;2023-05-23T02:24:00;93003.06;;;11.92;89.09
12471;BME280;36499;46.484;13.832;2023-05-23T02:26:27;93002.84;;;11.93;89.25
12471;BME280;36499;46.484;13.832;2023-05-23T02:28:54;93002.72;;;11.88;89.88
12471;BME280;36499;46.484;13.832;2023-05-23T02:31:21;92997.47;;;11.88;90.02
12471;BME280;36499;46.484;13.832;2023-05-23T02:33:48;92994.22;;;11.93;89.33
12471;BME280;36499;46.484;13.832;2023-05-23T02:36:17;93002.03;;;11.93;88.57
12471;BME280;36499;46.484;13.832;2023-05-23T02:38:44;92994.22;;;11.93;88.57
12471;BME280;36499;46.484;13.832;2023-05-23T02:41:11;92999.44;;;11.93;88.84
12471;BME280;36499;46.484;13.832;2023-05-23T02:43:38;92997.13;;;11.85;88.58
12471;BME280;36499;46.484;13.832;2023-05-23T02:46:05;92995.53;;;11.84;89.06
12471;BME280;36499;46.484;13.832;2023-05-23T02:48:32;92991.91;;;11.85;88.79
12471;BME280;36499;46.484;13.832;2023-05-23T02:50:59;92988.59;;;11.78;88.67
12471;BME280;36499;46.484;13.832;2023-05-23T02:53:28;93001.06;;;11.76;87.74
12471;BME280;36499;46.484;13.832;2023-05-23T02:55:55;93006.72;;;11.73;87.95
12471;BME280;36499;46.484;13.832;2023-05-23T02:58:22;93001.94;;;11.70;88.57
12471;BME280;36499;46.484;13.832;2023-05-23T03:00:50;92997.88;;;11.74;88.29
12471;BME280;36499;46.484;13.832;2023-05-23T03:03:17;92999.69;;;11.73;89.06
12471;BME280;36499;46.484;13.832;2023-05-23T03:05:44;93000.28;;;11.75;89.25
12471;BME280;36499;46.484;13.832;2023-05-23T03:08:11;92993.81;;;11.78;88.70
12471;BME280;36499;46.484;13.832;2023-05-23T03:10:39;92996.28;;;11.73;88.92
12471;BME280;36499;46.484;13.832;2023-05-23T03:13:06;92988.69;;;11.71;88.38
12471;BME280;36499;46.484;13.832;2023-05-23T03:15:33;92987.72;;;11.66;88.20
12471;BME280;36499;46.484;13.832;2023-05-23T03:18:00;92978.28;;;11.65;88.82
12471;BME280;36499;46.484;13.832;2023-05-23T03:20:28;92985.75;;;11.61;89.74
12471;BME280;36499;46.484;13.832;2023-05-23T03:22:55;92983.44;;;11.53;88.24
12471;BME280;36499;46.484;13.832;2023-05-23T03:25:22;92981.53;;;11.48;87.98
12471;BME280;36499;46.484;13.832;2023-05-23T03:27:50;92978.31;;;11.46;87.72
12471;BME280;36499;46.484;13.832;2023-05-23T03:30:17;92981.25;;;11.38;87.82
12471;BME280;36499;46.484;13.832;2023-05-23T03:32:45;92982.13;;;11.32;89.03
12471;BME280;36499;46.484;13.832;2023-05-23T03:35:12;92986.63;;;11.25;90.40
12471;BME280;36499;46.484;13.832;2023-05-23T03:37:39;92988.09;;;11.21;91.59
12471;BME280;36499;46.484;13.832;2023-05-23T03:40:07;92991.19;;;11.30;91.85
12471;BME280;36499;46.484;13.832;2023-05-23T03:42:37;92993.28;;;11.39;91.02
12471;BME280;36499;46.484;13.832;2023-05-23T03:45:06;92993.06;;;11.41;89.55
12471;BME280;36499;46.484;13.832;2023-05-23T03:47:33;92993.84;;;11.41;88.85
12471;BME280;36499;46.484;13.832;2023-05-23T03:50:00;92994.44;;;11.43;89.55
12471;BME280;36499;46.484;13.832;2023-05-23T03:52:27;92993.47;;;11.38;88.29
12471;BME280;36499;46.484;13.832;2023-05-23T03:54:54;93001.03;;;11.28;87.29
12471;BME280;36499;46.484;13.832;2023-05-23T03:57:21;93003.84;;;11.26;88.47
12471;BME280;36499;46.484;13.832;2023-05-23T03:59:49;93004.94;;;11.19;87.56
12471;BME280;36499;46.484;13.832;2023-05-23T04:02:18;93003.13;;;11.19;89.04
12471;BME280;36499;46.484;13.832;2023-05-23T04:04:45;92999.09;;;11.23;89.69
12471;BME280;36499;46.484;13.832;2023-05-23T04:07:13;93000.31;;;11.21;91.24
12471;BME280;36499;46.484;13.832;2023-05-23T04:09:40;93002.66;;;11.11;92.87
12471;BME280;36499;46.484;13.832;2023-05-23T04:12:08;93006.63;;;11.13;92.96
12471;BME280;36499;46.484;13.832;2023-05-23T04:14:35;93000.53;;;11.19;92.85
12471;BME280;36499;46.484;13.832;2023-05-23T04:17:04;93001.94;;;11.22;94.10
12471;BME280;36499;46.484;13.832;2023-05-23T04:19:35;93005.91;;;11.24;94.10
12471;BME280;36499;46.484;13.832;2023-05-23T04:22:02;93008.38;;;11.37;93.19
12471;BME280;36499;46.484;13.832;2023-05-23T04:24:29;93006.53;;;11.38;93.17
12471;BME280;36499;46.484;13.832;2023-05-23T04:26:56;93004.25;;;11.30;93.19
12471;BME280;36499;46.484;13.832;2023-05-23T04:29:24;93009.22;;;11.31;93.46
12471;BME280;36499;46.484;13.832;2023-05-23T04:31:51;93003.00;;;11.32;93.12
12471;BME280;36499;46.484;13.832;2023-05-23T04:34:19;93003.38;;;11.36;93.31
12471;BME280;36499;46.484;13.832;2023-05-23T04:36:48;93008.28;;;11.44;93.13
12471;BME280;36499;46.484;13.832;2023-05-23T04:39:15;92996.50;;;11.53;93.34
12471;BME280;36499;46.484;13.832;2023-05-23T04:41:42;92998.41;;;11.64;93.19
12471;BME280;36499;46.484;13.832;2023-05-23T04:44:10;92996.63;;;11.76;93.27
12471;BME280;36499;46.484;13.832;2023-05-23T04:46:37;92992.13;;;11.83;92.45
12471;BME280;36499;46.484;13.832;2023-05-23T04:49:06;92990.66;;;11.87;91.89
12471;BME280;36499;46.484;13.832;2023-05-23T04:51:34;92988.28;;;11.86;92.31
12471;BME280;36499;46.484;13.832;2023-05-23T04:54:04;92987.84;;;11.89;92.55
12471;BME280;36499;46.484;13.832;2023-05-23T04:56:32;92986.63;;;12.03;92.89
12471;BME280;36499;46.484;13.832;2023-05-23T04:59:00;92983.81;;;12.16;92.77
12471;BME280;36499;46.484;13.832;2023-05-23T05:01:27;92987.34;;;12.22;92.21
12471;BME280;36499;46.484;13.832;2023-05-23T05:03:54;92977.38;;;12.42;91.65
12471;BME280;36499;46.484;13.832;2023-05-23T05:06:22;92982.16;;;12.57;90.79
12471;BME280;36499;46.484;13.832;2023-05-23T05:08:49;92984.66;;;12.63;90.04
12471;BME280;36499;46.484;13.832;2023-05-23T05:11:18;92983.50;;;12.71;90.33
12471;BME280;36499;46.484;13.832;2023-05-23T05:13:45;92977.94;;;12.79;90.21
12471;BME280;36499;46.484;13.832;2023-05-23T05:16:12;92970.34;;;12.89;90.39
12471;BME280;36499;46.484;13.832;2023-05-23T05:18:39;92966.44;;;13.03;90.48
12471;BME280;36499;46.484;13.832;2023-05-23T05:21:07;92966.34;;;13.10;89.77
12471;BME280;36499;46.484;13.832;2023-05-23T05:23:35;92959.94;;;13.17;88.79
12471;BME280;36499;46.484;13.832;2023-05-23T05:26:02;92962.06;;;13.32;88.07
12471;BME280;36499;46.484;13.832;2023-05-23T05:28:31;92957.38;;;13.45;88.19
12471;BME280;36499;46.484;13.832;2023-05-23T05:30:58;92946.63;;;13.59;87.19
12471;BME280;36499;46.484;13.832;2023-05-23T05:33:29;92942.88;;;13.83;86.90
12471;BME280;36499;46.484;13.832;2023-05-23T05:36:00;92944.47;;;14.01;86.25
12471;BME280;36499;46.484;13.832;2023-05-23T05:38:28;92932.72;;;14.20;85.92
12471;BME280;36499;46.484;13.832;2023-05-23T05:40:55;92948.97;;;14.33;84.90
12471;BME280;36499;46.484;13.832;2023-05-23T05:43:22;92944.53;;;14.51;84.44
12471;BME280;36499;46.484;13.832;2023-05-23T05:45:50;92956.28;;;14.65;84.56
12471;BME280;36499;46.484;13.832;2023-05-23T05:48:17;92945.63;;;14.71;82.68
12471;BME280;36499;46.484;13.832;2023-05-23T05:50:45;92945.91;;;14.92;82.78
12471;BME280;36499;46.484;13.832;2023-05-23T05:53:12;92948.19;;;15.05;82.55
12471;BME280;36499;46.484;13.832;2023-05-23T05:55:39;92935.00;;;15.21;82.49
12471;BME280;36499;46.484;13.832;2023-05-23T05:58:06;92934.91;;;15.33;81.06
12471;BME280;36499;46.484;13.832;2023-05-23T06:00:34;92934.50;;;15.46;80.24
12471;BME280;36499;46.484;13.832;2023-05-23T06:03:07;92924.69;;;15.58;79.59
12471;BME280;36499;46.484;13.832;2023-05-23T06:05:35;92929.31;;;15.73;78.40
12471;BME280;36499;46.484;13.832;2023-05-23T06:08:04;92921.06;;;15.91;77.72
12471;BME280;36499;46.484;13.832;2023-05-23T06:10:32;92910.97;;;16.10;77.14
12471;BME280;36499;46.484;13.832;2023-05-23T06:12:59;92912.19;;;16.24;75.56
12471;BME280;36499;46.484;13.832;2023-05-23T06:15:26;92917.03;;;16.42;75.91
12471;BME280;36499;46.484;13.832;2023-05-23T06:17:53;92918.16;;;16.51;75.49
12471;BME280;36499;46.484;13.832;2023-05-23T06:20:21;92909.66;;;16.76;74.76
12471;BME280;36499;46.484;13.832;2023-05-23T06:22:48;92910.81;;;16.90;72.62
12471;BME280;36499;46.484;13.832;2023-05-23T06:25:16;92903.47;;;16.97;71.61
12471;BME280;36499;46.484;13.832;2023-05-23T06:27:43;92906.19;;;17.17;71.23
12471;BME280;36499;46.484;13.832;2023-05-23T06:30:12;92907.34;;;17.37;70.73
12471;BME280;36499;46.484;13.832;2023-05-23T06:32:40;92906.91;;;17.60;70.12
12471;BME280;36499;46.484;13.832;2023-05-23T06:35:08;92897.97;;;17.66;68.46
12471;BME280;36499;46.484;13.832;2023-05-23T06:37:36;92887.72;;;17.80;67.72
12471;BME280;36499;46.484;13.832;2023-05-23T06:40:09;92895.94;;;18.08;67.90
12471;BME280;36499;46.484;13.832;2023-05-23T06:42:36;92887.75;;;18.15;67.09
12471;BME280;36499;46.484;13.832;2023-05-23T06:45:04;92889.09;;;18.33;67.60
12471;BME280;36499;46.484;13.832;2023-05-23T06:47:31;92882.22;;;18.47;66.11
12471;BME280;36499;46.484;13.832;2023-05-23T06:49:58;92885.41;;;18.59;65.04
12471;BME280;36499;46.484;13.832;2023-05-23T06:52:25;92881.69;;;18.70;64.39
12471;BME280;36499;46.484;13.832;2023-05-23T06:54:54;92878.75;;;18.87;62.29
12471;BME280;36499;46.484;13.832;2023-05-23T06:57:21;92876.59;;;19.04;62.22
12471;BME280;36499;46.484;13.832;2023-05-23T06:59:48;92878.91;;;19.21;60.63
12471;BME280;36499;46.484;13.832;2023-05-23T07:02:15;92873.31;;;19.32;59.75
12471;BME280;36499;46.484;13.832;2023-05-23T07:04:42;92868.50;;;19.49;58.70
12471;BME280;36499;46.484;13.832;2023-05-23T07:07:09;92862.88;;;19.66;58.01
12471;BME280;36499;46.484;13.832;2023-05-23T07:09:37;92872.84;;;19.79;56.65
12471;BME280;36499;46.484;13.832;2023-05-23T07:12:06;92867.50;;;19.89;57.59
12471;BME280;36499;46.484;13.832;2023-05-23T07:14:33;92871.91;;;19.99;57.10
12471;BME280;36499;46.484;13.832;2023-05-23T07:17:03;92863.97;;;20.04;56.93
12471;BME280;36499;46.484;13.832;2023-05-23T07:19:30;92864.66;;;20.15;57.01
12471;BME280;36499;46.484;13.832;2023-05-23T07:21:57;92865.84;;;20.37;57.75
12471;BME280;36499;46.484;13.832;2023-05-23T07:24:24;92861.56;;;20.41;56.76
12471;BME280;36499;46.484;13.832;2023-05-23T07:26:51;92856.75;;;20.77;56.88
12471;BME280;36499;46.484;13.832;2023-05-23T07:29:20;92851.22;;;20.97;56.76
12471;BME280;36499;46.484;13.832;2023-05-23T07:31:47;92854.53;;;21.13;56.01
12471;BME280;36499;46.484;13.832;2023-05-23T07:34:14;92853.13;;;21.21;54.46
12471;BME280;36499;46.484;13.832;2023-05-23T07:36:41;92863.97;;;21.43;54.10
12471;BME280;36499;46.484;13.832;2023-05-23T07:39:08;92853.91;;;21.45;52.30
12471;BME280;36499;46.484;13.832;2023-05-23T07:41:35;92843.00;;;21.65;53.61
12471;BME280;36499;46.484;13.832;2023-05-23T07:44:02;92841.03;;;21.76;51.45
12471;BME280;36499;46.484;13.832;2023-05-23T07:46:31;92836.81;;;21.93;50.74
12471;BME280;36499;46.484;13.832;2023-05-23T07:48:58;92839.31;;;22.04;51.85
12471;BME280;36499;46.484;13.832;2023-05-23T07:51:25;92829.63;;;22.13;50.27
12471;BME280;36499;46.484;13.832;2023-05-23T07:53:52;92826.50;;;22.24;49.34
12471;BME280;36499;46.484;13.832;2023-05-23T07:56:19;92822.16;;;22.47;50.19
12471;BME280;36499;46.484;13.832;2023-05-23T07:58:46;92822.94;;;22.47;50.15
12471;BME280;36499;46.484;13.832;2023-05-23T08:01:13;92827.88;;;22.54;48.27
12471;BME280;36499;46.484;13.832;2023-05-23T08:03:42;92820.47;;;22.83;48.59
12471;BME280;36499;46.484;13.832;2023-05-23T08:06:09;92818.03;;;23.01;48.75
12471;BME280;36499;46.484;13.832;2023-05-23T08:08:36;92810.34;;;23.13;47.69
12471;BME280;36499;46.484;13.832;2023-05-23T08:11:03;92811.72;;;23.24;45.21
12471;BME280;36499;46.484;13.832;2023-05-23T08:13:30;92803.84;;;23.46;45.65
12471;BME280;36499;46.484;13.832;2023-05-23T08:15:57;92810.44;;;23.49;43.56
12471;BME280;36499;46.484;13.832;2023-05-23T08:18:24;92802.75;;;23.47;43.20
12471;BME280;36499;46.484;13.832;2023-05-23T08:20:53;92803.47;;;23.75;43.72
12471;BME280;36499;46.484;13.832;2023-05-23T08:23:20;92803.91;;;23.90;43.73
12471;BME280;36499;46.484;13.832;2023-05-23T08:25:47;92790.53;;;23.82;41.34
12471;BME280;36499;46.484;13.832;2023-05-23T08:28:14;92793.38;;;23.85;41.04
12471;BME280;36499;46.484;13.832;2023-05-23T08:30:41;92783.78;;;23.98;42.26
12471;BME280;36499;46.484;13.832;2023-05-23T08:33:08;92789.34;;;24.10;42.46
12471;BME280;36499;46.484;13.832;2023-05-23T08:35:36;92789.56;;;24.14;41.33
12471;BME280;36499;46.484;13.832;2023-05-23T08:38:05;92792.66;;;24.29;42.19
12471;BME280;36499;46.484;13.832;2023-05-23T08:40:35;92791.59;;;24.39;41.59
12471;BME280;36499;46.484;13.832;2023-05-23T08:43:03;92785.13;;;24.54;41.82
12471;BME280;36499;46.484;13.832;2023-05-23T08:45:30;92787.53;;;24.64;40.38
12471;BME280;36499;46.484;13.832;2023-05-23T08:48:00;92794.16;;;24.44;41.05
12471;BME280;36499;46.484;13.832;2023-05-23T08:50:29;92794.25;;;24.39;41.50
12471;BME280;36499;46.484;13.832;2023-05-23T08:52:58;92789.16;;;24.51;41.92
12471;BME280;36499;46.484;13.832;2023-05-23T08:55:27;92791.16;;;24.68;41.73
12471;BME280;36499;46.484;13.832;2023-05-23T08:57:57;92790.22;;;24.95;40.91
12471;BME280;36499;46.484;13.832;2023-05-23T09:00:26;92790.16;;;25.34;41.05
12471;BME280;36499;46.484;13.832;2023-05-23T09:02:54;92783.50;;;25.62;40.00
12471;BME280;36499;46.484;13.832;2023-05-23T09:05:21;92782.16;;;25.34;39.05
12471;BME280;36499;46.484;13.832;2023-05-23T09:07:49;92787.47;;;25.17;40.06
12471;BME280;36499;46.484;13.832;2023-05-23T09:10:18;92784.28;;;25.15;39.74
12471;BME280;36499;46.484;13.832;2023-05-23T09:12:47;92778.44;;;24.96;38.68
12471;BME280;36499;46.484;13.832;2023-05-23T09:15:15;92782.34;;;25.38;42.20
12471;BME280;36499;46.484;13.832;2023-05-23T09:17:44;92774.69;;;25.53;38.67
12471;BME280;36499;46.484;13.832;2023-05-23T09:20:13;92769.47;;;25.48;37.43
12471;BME280;36499;46.484;13.832;2023-05-23T09:22:45;92775.88;;;25.30;38.78
12471;BME280;36499;46.484;13.832;2023-05-23T09:25:13;92771.19;;;25.44;39.39
12471;BME280;36499;46.484;13.832;2023-05-23T09:27:41;92772.19;;;25.65;41.04
12471;BME280;36499;46.484;13.832;2023-05-23T09:30:12;92761.69;;;25.60;39.67
12471;BME280;36499;46.484;13.832;2023-05-23T09:32:39;92771.34;;;25.39;38.78
12471;BME280;36499;46.484;13.832;2023-05-23T09:35:08;92770.56;;;25.30;39.10
12471;BME280;36499;46.484;13.832;2023-05-23T09:37:39;92772.09;;;25.31;41.26
12471;BME280;36499;46.484;13.832;2023-05-23T09:40:09;92762.31;;;25.66;40.72
12471;BME280;36499;46.484;13.832;2023-05-23T09:42:42;92762.63;;;25.73;41.45
12471;BME280;36499;46.484;13.832;2023-05-23T09:45:12;92764.44;;;25.47;39.58
12471;BME280;36499;46.484;13.832;2023-05-23T09:47:48;92768.25;;;24.98;39.04
12471;BME280;36499;46.484;13.832;2023-05-23T09:50:17;92773.88;;;24.96;40.87
12471;BME280;36499;46.484;13.832;2023-05-23T09:52:44;92767.97;;;24.77;42.50
12471;BME280;36499;46.484;13.832;2023-05-23T09:55:11;92771.19;;;24.57;43.67
12471;BME280;36499;46.484;13.832;2023-05-23T09:57:41;92768.75;;;24.47;42.55
12471;BME280;36499;46.484;13.832;2023-05-23T10:00:11;92767.59;;;24.30;41.88
12471;BME280;36499;46.484;13.832;2023-05-23T10:02:54;92770.78;;;24.19;43.25
12471;BME280;36499;46.484;13.832;2023-05-23T10:05:44;92770.19;;;24.22;45.92
12471;BME280;36499;46.484;13.832;2023-05-23T10:08:15;92769.84;;;24.15;48.63
12471;BME280;36499;46.484;13.832;2023-05-23T10:14:14;92766.41;;;24.01;53.96
12471;BME280;36499;46.484;13.832;2023-05-23T10:16:58;92766.75;;;23.85;55.20
12471;BME280;36499;46.484;13.832;2023-05-23T10:19:39;92774.97;;;23.75;54.82
12471;BME280;36499;46.484;13.832;2023-05-23T10:22:11;92778.94;;;23.64;54.86
12471;BME280;36499;46.484;13.832;2023-05-23T10:24:40;92780.38;;;23.48;56.88
12471;BME280;36499;46.484;13.832;2023-05-23T10:27:08;92780.16;;;23.58;58.03
12471;BME280;36499;46.484;13.832;2023-05-23T10:29:35;92773.78;;;24.04;59.62
12471;BME280;36499;46.484;13.832;2023-05-23T10:32:06;92766.47;;;24.62;59.96
12471;BME280;36499;46.484;13.832;2023-05-23T10:34:40;92773.50;;;25.20;55.84
12471;BME280;36499;46.484;13.832;2023-05-23T10:37:18;92763.72;;;25.63;55.49
12471;BME280;36499;46.484;13.832;2023-05-23T10:39:57;92759.81;;;25.87;54.78
12471;BME280;36499;46.484;13.832;2023-05-23T10:42:37;92759.16;;;25.81;53.42
12471;BME280;36499;46.484;13.832;2023-05-23T10:45:15;92748.19;;;25.83;53.42
12471;BME280;36499;46.484;13.832;2023-05-23T10:47:45;92748.00;;;26.13;53.21
12471;BME280;36499;46.484;13.832;2023-05-23T10:50:12;92744.19;;;26.49;53.31
12471;BME280;36499;46.484;13.832;2023-05-23T10:52:41;92740.38;;;26.67;51.98
12471;BME280;36499;46.484;13.832;2023-05-23T10:55:13;92740.56;;;27.00;53.94
12471;BME280;36499;46.484;13.832;2023-05-23T10:57:43;92728.28;;;27.28;50.22
12471;BME280;36499;46.484;13.832;2023-05-23T11:00:14;92722.03;;;27.53;50.46
12471;BME280;36499;46.484;13.832;2023-05-23T11:02:58;92712.88;;;27.54;53.00
12471;BME280;36499;46.484;13.832;2023-05-23T11:05:28;92710.31;;;27.79;51.46
12471;BME280;36499;46.484;13.832;2023-05-23T11:08:10;92706.78;;;27.87;48.60
12471;BME280;36499;46.484;13.832;2023-05-23T11:10:57;92710.88;;;28.05;48.82
12471;BME280;36499;46.484;13.832;2023-05-23T11:13:25;92712.34;;;28.02;47.06
12471;BME280;36499;46.484;13.832;2023-05-23T11:16:26;92715.16;;;28.27;49.11
12471;BME280;36499;46.484;13.832;2023-05-23T11:19:24;92707.47;;;28.37;46.09
12471;BME280;36499;46.484;13.832;2023-05-23T11:21:56;92703.16;;;28.57;45.46
12471;BME280;36499;46.484;13.832;2023-05-23T11:24:23;92702.91;;;28.62;41.91
12471;BME280;36499;46.484;13.832;2023-05-23T11:27:11;92708.56;;;28.93;43.21
12471;BME280;36499;46.484;13.832;2023-05-23T11:29:38;92706.91;;;29.01;40.75
12471;BME280;36499;46.484;13.832;2023-05-23T11:32:10;92702.31;;;29.01;37.80
12471;BME280;36499;46.484;13.832;2023-05-23T11:34:39;92708.59;;;29.05;37.70
12471;BME280;36499;46.484;13.832;2023-05-23T11:37:07;92700.09;;;29.28;37.25
12471;BME280;36499;46.484;13.832;2023-05-23T11:39:36;92698.50;;;29.51;37.54
12471;BME280;36499;46.484;13.832;2023-05-23T11:42:05;92684.94;;;29.60;36.46
12471;BME280;36499;46.484;13.832;2023-05-23T11:44:32;92692.28;;;29.75;34.87
12471;BME280;36499;46.484;13.832;2023-05-23T11:47:00;92681.31;;;29.68;35.36
12471;BME280;36499;46.484;13.832;2023-05-23T11:49:29;92679.06;;;29.70;35.60
12471;BME280;36499;46.484;13.832;2023-05-23T11:52:00;92683.38;;;29.59;37.75
12471;BME280;36499;46.484;13.832;2023-05-23T11:54:28;92692.75;;;29.52;35.67
12471;BME280;36499;46.484;13.832;2023-05-23T11:56:56;92698.97;;;29.29;35.05
12471;BME280;36499;46.484;13.832;2023-05-23T11:59:25;92719.00;;;28.95;34.37
12471;BME280;36499;46.484;13.832;2023-05-23T12:01:53;92719.50;;;28.31;34.94
12471;BME280;36499;46.484;13.832;2023-05-23T12:04:21;92733.44;;;27.62;41.93
12471;BME280;36499;46.484;13.832;2023-05-23T12:06:49;92745.97;;;26.28;48.19
12471;BME280;36499;46.484;13.832;2023-05-23T12:09:17;92753.84;;;25.64;51.39
12471;BME280;36499;46.484;13.832;2023-05-23T12:11:44;92757.44;;;25.11;52.93
12471;BME280;36499;46.484;13.832;2023-05-23T12:14:16;92764.72;;;24.49;55.90
12471;BME280;36499;46.484;13.832;2023-05-23T12:16:45;92772.34;;;24.20;57.31
12471;BME280;36499;46.484;13.832;2023-05-23T12:19:13;92777.03;;;23.78;59.74
12471;BME280;36499;46.484;13.832;2023-05-23T12:21:44;92786.06;;;23.41;63.19
12471;BME280;36499;46.484;13.832;2023-05-23T12:24:17;92802.88;;;23.01;65.80
12471;BME280;36499;46.484;13.832;2023-05-23T12:26:52;92800.28;;;22.82;65.23
12471;BME280;36499;46.484;13.832;2023-05-23T12:29:26;92805.44;;;22.60;66.59
12471;BME280;36499;46.484;13.832;2023-05-23T12:31:54;92806.06;;;22.25;69.15
12471;BME280;36499;46.484;13.832;2023-05-23T12:34:24;92805.41;;;21.58;69.52
12471;BME280;36499;46.484;13.832;2023-05-23T12:36:54;92810.25;;;21.14;73.17
12471;BME280;36499;46.484;13.832;2023-05-23T12:39:27;92805.16;;;20.70;75.85
12471;BME280;36499;46.484;13.832;2023-05-23T12:42:06;92804.88;;;20.71;76.71
12471;BME280;36499;46.484;13.832;2023-05-23T12:44:33;92797.44;;;20.73;78.99
12471;BME280;36499;46.484;13.832;2023-05-23T12:47:01;92799.78;;;20.75;76.14
12471;BME280;36499;46.484;13.832;2023-05-23T12:49:28;92801.38;;;20.76;76.24
12471;BME280;36499;46.484;13.832;2023-05-23T12:51:55;92798.09;;;20.60;78.12
12471;BME280;36499;46.484;13.832;2023-05-23T12:54:22;92806.59;;;20.28;79.63
12471;BME280;36499;46.484;13.832;2023-05-23T12:56:51;92804.53;;;19.86;83.79
12471;BME280;36499;46.484;13.832;2023-05-23T12:59:18;92792.28;;;19.61;86.93
12471;BME280;36499;46.484;13.832;2023-05-23T13:01:45;92792.44;;;19.75;84.52
12471;BME280;36499;46.484;13.832;2023-05-23T13:04:12;92790.72;;;19.94;82.68